Time;durP1;ratioP1;P1;durP2;ratioP2;P2;SDS_P1;SDS_P2;PMS_P1;PMS_P2;Temp;Humidity;BMP_temperature;BMP_pressure;BME280_temperature;BME280_humidity;BME280_pressure;Samples;Min_cycle;Max_cycle;Signal;HPM_P1;HPM_P2
2023/06/21 00:00:34;;;;;;;9.90;7.70;;;;;;;;;;5060639;28;20033;-64
2023/06/21 00:02:59;;;;;;;11.17;7.77;;;;;;;;;;5020304;28;20052;-62
2023/06/21 00:05:24;;;;;;;10.80;7.78;;;;;;;;;;5056433;28;20275;-63
2023/06/21 00:07:52;;;;;;;10.73;7.87;;;;;;;;;;5050990;28;20185;-65
2023/06/21 00:10:18;;;;;;;10.52;7.88;;;;;;;;;;5053889;28;20283;-63
2023/06/21 00:12:43;;;;;;;13.77;7.85;;;;;;;;;;5065755;28;20497;-63
2023/06/21 00:15:09;;;;;;;10.10;7.33;;;;;;;;;;5055236;28;20504;-62
2023/06/21 00:17:34;;;;;;;10.20;7.57;;;;;;;;;;5049465;28;20309;-64
2023/06/21 00:20:00;;;;;;;10.40;7.50;;;;;;;;;;5062366;28;20025;-64
2023/06/21 00:22:25;;;;;;;9.87;7.67;;;;;;;;;;5058558;28;20780;-62
2023/06/21 00:24:51;;;;;;;8.82;7.47;;;;;;;;;;5075989;28;20262;-63
2023/06/21 00:27:16;;;;;;;9.73;7.85;;;;;;;;;;5068642;28;20037;-62
2023/06/21 00:29:42;;;;;;;9.02;7.68;;;;;;;;;;5064954;28;20048;-62
2023/06/21 00:32:07;;;;;;;11.00;7.73;;;;;;;;;;5063639;28;20044;-62
2023/06/21 00:34:34;;;;;;;10.10;7.03;;;;;;;;;;5055740;28;20175;-63
2023/06/21 00:37:02;;;;;;;10.93;8.02;;;;;;;;;;5054193;28;20110;-62
2023/06/21 00:39:27;;;;;;;12.30;7.88;;;;;;;;;;5058294;28;20033;-64
2023/06/21 00:41:52;;;;;;;9.83;7.57;;;;;;;;;;5040650;28;20043;-63
2023/06/21 00:44:18;;;;;;;10.50;7.17;;;;;;;;;;5055231;28;21093;-63
2023/06/21 00:46:44;;;;;;;8.60;7.50;;;;;;;;;;5063617;28;20278;-63
2023/06/21 00:49:09;;;;;;;10.63;7.47;;;;;;;;;;5058042;28;20099;-63
2023/06/21 00:51:36;;;;;;;9.63;7.07;;;;;;;;;;5058131;28;20092;-63
2023/06/21 00:54:02;;;;;;;8.45;6.55;;;;;;;;;;5037464;28;20053;-62
2023/06/21 00:56:27;;;;;;;10.27;7.45;;;;;;;;;;5048382;28;20021;-62
2023/06/21 00:58:52;;;;;;;9.93;7.23;;;;;;;;;;5038068;28;20515;-62
2023/06/21 01:01:18;;;;;;;8.70;6.78;;;;;;;;;;5049896;28;20271;-61
2023/06/21 01:03:43;;;;;;;11.02;7.70;;;;;;;;;;5048933;28;20021;-61
2023/06/21 01:06:12;;;;;;;9.30;7.32;;;;;;;;;;5051583;28;20032;-63
2023/06/21 01:08:40;;;;;;;8.18;7.03;;;;;;;;;;5059240;28;20492;-63
2023/06/21 01:11:23;;;;;;;9.18;7.07;;;;;;;;;;5061811;28;20038;-61
2023/06/21 01:14:05;;;;;;;9.10;6.93;;;;;;;;;;5063264;28;20037;-60
2023/06/21 01:16:40;;;;;;;13.57;7.43;;;;;;;;;;5014260;28;20135;-61
2023/06/21 01:19:06;;;;;;;8.95;7.10;;;;;;;;;;5039965;28;20127;-61
2023/06/21 01:21:31;;;;;;;9.13;7.47;;;;;;;;;;5064468;28;20131;-61
2023/06/21 01:24:02;;;;;;;11.73;7.00;;;;;;;;;;5043142;28;20041;-61
2023/06/21 01:26:34;;;;;;;8.00;7.13;;;;;;;;;;5046969;28;20041;-62
2023/06/21 01:29:09;;;;;;;9.32;7.70;;;;;;;;;;5063434;28;20116;-62
2023/06/21 01:31:34;;;;;;;8.95;6.68;;;;;;;;;;5039897;28;20072;-59
2023/06/21 01:33:59;;;;;;;10.87;7.00;;;;;;;;;;5051264;28;20654;-63
2023/06/21 01:36:24;;;;;;;7.67;6.77;;;;;;;;;;5036225;28;20483;-62
2023/06/21 01:38:53;;;;;;;7.85;6.63;;;;;;;;;;5059795;28;20091;-61
2023/06/21 01:41:19;;;;;;;8.93;7.32;;;;;;;;;;5051964;28;20041;-61
2023/06/21 01:43:44;;;;;;;9.27;7.00;;;;;;;;;;5049498;28;20473;-61
2023/06/21 01:46:10;;;;;;;10.70;6.70;;;;;;;;;;5033956;28;20248;-61
2023/06/21 01:48:35;;;;;;;9.85;6.50;;;;;;;;;;5055065;28;20377;-62
2023/06/21 01:51:02;;;;;;;8.30;6.82;;;;;;;;;;5041654;28;20164;-62
2023/06/21 01:53:27;;;;;;;9.90;7.00;;;;;;;;;;5060390;28;20779;-63
2023/06/21 01:55:52;;;;;;;11.53;6.90;;;;;;;;;;5035415;28;20056;-62
2023/06/21 01:58:17;;;;;;;10.00;7.20;;;;;;;;;;5062839;28;20550;-62
2023/06/21 02:00:44;;;;;;;9.70;6.83;;;;;;;;;;5062413;28;20302;-62
2023/06/21 02:03:10;;;;;;;10.85;7.05;;;;;;;;;;5065837;28;20287;-61
2023/06/21 02:05:35;;;;;;;9.55;7.22;;;;;;;;;;5058177;28;20069;-61
2023/06/21 02:08:00;;;;;;;10.45;7.13;;;;;;;;;;5046877;28;20064;-62
2023/06/21 02:10:25;;;;;;;7.80;6.77;;;;;;;;;;5051804;28;20036;-61
2023/06/21 02:12:54;;;;;;;9.93;6.63;;;;;;;;;;5058200;28;20301;-62
2023/06/21 02:15:19;;;;;;;8.18;6.93;;;;;;;;;;5051845;28;20405;-62
2023/06/21 02:17:50;;;;;;;9.15;7.10;;;;;;;;;;5061916;28;20671;-61
2023/06/21 02:20:19;;;;;;;9.63;7.20;;;;;;;;;;5063987;28;20044;-64
2023/06/21 02:22:45;;;;;;;10.05;7.78;;;;;;;;;;5054814;28;20020;-63
2023/06/21 02:25:10;;;;;;;8.40;7.20;;;;;;;;;;5082484;28;20042;-62
2023/06/21 02:27:36;;;;;;;10.13;6.78;;;;;;;;;;5052692;28;20051;-63
2023/06/21 02:30:01;;;;;;;9.00;7.33;;;;;;;;;;5066806;28;20052;-62
2023/06/21 02:32:26;;;;;;;9.50;6.87;;;;;;;;;;5051355;28;20679;-62
2023/06/21 02:34:51;;;;;;;8.30;6.57;;;;;;;;;;5057540;28;20832;-62
2023/06/21 02:37:16;;;;;;;9.57;6.85;;;;;;;;;;5066214;28;20509;-63
2023/06/21 02:39:42;;;;;;;11.03;7.23;;;;;;;;;;5070238;28;20035;-63
2023/06/21 02:42:07;;;;;;;9.63;6.82;;;;;;;;;;5036605;28;20050;-64
2023/06/21 02:44:32;;;;;;;11.43;7.63;;;;;;;;;;5064308;28;20032;-62
2023/06/21 02:46:58;;;;;;;8.33;6.83;;;;;;;;;;5069495;28;20319;-63
2023/06/21 02:49:24;;;;;;;9.15;7.07;;;;;;;;;;5067036;28;20297;-62
2023/06/21 02:51:50;;;;;;;11.13;7.03;;;;;;;;;;5070300;28;20040;-63
2023/06/21 02:54:15;;;;;;;8.52;6.95;;;;;;;;;;5054773;28;20052;-61
2023/06/21 02:56:42;;;;;;;8.90;6.75;;;;;;;;;;5050973;28;20880;-61
2023/06/21 02:59:08;;;;;;;9.95;7.22;;;;;;;;;;5064926;28;20506;-61
2023/06/21 03:01:33;;;;;;;11.38;7.53;;;;;;;;;;5063174;28;20035;-61
2023/06/21 03:03:58;;;;;;;11.23;7.70;;;;;;;;;;5068486;28;20036;-63
2023/06/21 03:06:23;;;;;;;11.10;7.80;;;;;;;;;;5058462;28;20321;-62
2023/06/21 03:08:51;;;;;;;9.03;7.53;;;;;;;;;;5031215;28;20371;-62
2023/06/21 03:11:16;;;;;;;10.68;7.93;;;;;;;;;;5073510;28;20620;-63
2023/06/21 03:13:41;;;;;;;9.95;7.53;;;;;;;;;;5059792;28;20037;-61
2023/06/21 03:16:07;;;;;;;9.07;7.10;;;;;;;;;;5041561;28;20068;-61
2023/06/21 03:18:32;;;;;;;9.73;7.43;;;;;;;;;;5058099;28;20033;-62
2023/06/21 03:21:00;;;;;;;9.40;7.65;;;;;;;;;;5066591;28;20470;-62
2023/06/21 03:23:26;;;;;;;11.38;8.07;;;;;;;;;;5047610;28;20446;-62
2023/06/21 03:25:51;;;;;;;9.38;6.88;;;;;;;;;;5070087;28;20087;-62
2023/06/21 03:28:16;;;;;;;11.27;7.53;;;;;;;;;;5057896;28;20036;-62
2023/06/21 03:30:42;;;;;;;9.93;7.57;;;;;;;;;;5065581;28;20379;-62
2023/06/21 03:33:07;;;;;;;12.18;7.63;;;;;;;;;;5057619;28;20345;-63
2023/06/21 03:35:32;;;;;;;8.97;6.70;;;;;;;;;;5053293;28;20171;-61
2023/06/21 03:37:57;;;;;;;9.23;7.70;;;;;;;;;;5053211;28;20291;-64
2023/06/21 03:40:22;;;;;;;9.37;8.10;;;;;;;;;;5051054;28;20820;-62
2023/06/21 03:42:48;;;;;;;11.10;7.80;;;;;;;;;;5030997;28;20776;-64
2023/06/21 03:45:13;;;;;;;9.38;7.45;;;;;;;;;;5051459;28;20283;-62
2023/06/21 03:47:39;;;;;;;11.57;7.68;;;;;;;;;;5053098;28;20032;-62
2023/06/21 03:50:05;;;;;;;9.32;7.22;;;;;;;;;;5051412;28;20274;-64
2023/06/21 03:52:30;;;;;;;11.60;7.60;;;;;;;;;;5051443;28;20426;-62
2023/06/21 03:54:55;;;;;;;10.10;7.43;;;;;;;;;;5052697;28;20295;-62
2023/06/21 03:57:20;;;;;;;9.73;7.23;;;;;;;;;;5052606;28;20313;-63
2023/06/21 03:59:46;;;;;;;9.20;7.60;;;;;;;;;;5052338;28;20299;-63
2023/06/21 04:02:11;;;;;;;8.27;7.10;;;;;;;;;;5051320;28;20356;-65
2023/06/21 04:04:38;;;;;;;9.48;7.38;;;;;;;;;;5052160;28;20041;-62
2023/06/21 04:07:04;;;;;;;9.35;7.60;;;;;;;;;;5052107;28;20029;-69
2023/06/21 04:09:29;;;;;;;9.75;6.90;;;;;;;;;;5052123;28;20058;-65
2023/06/21 04:11:54;;;;;;;9.53;7.43;;;;;;;;;;5050453;28;20686;-65
2023/06/21 04:14:19;;;;;;;9.57;7.63;;;;;;;;;;5053413;28;20514;-64
2023/06/21 04:16:45;;;;;;;11.87;8.07;;;;;;;;;;5051604;28;21893;-64
2023/06/21 04:19:10;;;;;;;11.80;7.68;;;;;;;;;;5051940;28;20306;-62
2023/06/21 04:21:35;;;;;;;8.80;7.70;;;;;;;;;;5054068;28;20513;-64
2023/06/21 04:24:00;;;;;;;10.97;8.10;;;;;;;;;;5052575;28;20443;-64
2023/06/21 04:26:27;;;;;;;11.13;8.20;;;;;;;;;;5051155;28;20299;-62
2023/06/21 04:28:52;;;;;;;10.93;8.40;;;;;;;;;;5038792;28;20033;-66
2023/06/21 04:31:17;;;;;;;12.67;9.23;;;;;;;;;;5050992;28;20048;-63
2023/06/21 04:33:42;;;;;;;10.33;8.57;;;;;;;;;;5050936;28;20302;-62
2023/06/21 04:36:08;;;;;;;11.60;8.60;;;;;;;;;;5048876;28;20052;-62
2023/06/21 04:38:33;;;;;;;13.90;9.35;;;;;;;;;;5022980;28;20047;-62
2023/06/21 04:40:58;;;;;;;11.80;9.27;;;;;;;;;;5050524;28;20097;-63
2023/06/21 04:43:25;;;;;;;12.07;9.15;;;;;;;;;;5051975;28;20133;-63
2023/06/21 04:45:50;;;;;;;12.88;9.32;;;;;;;;;;5050991;28;20095;-62
2023/06/21 04:48:16;;;;;;;13.63;9.85;;;;;;;;;;5036218;28;20026;-62
2023/06/21 04:50:45;;;;;;;13.90;9.67;;;;;;;;;;5037144;28;20128;-61
2023/06/21 04:53:10;;;;;;;14.23;9.80;;;;;;;;;;5031887;28;20134;-61
2023/06/21 04:55:35;;;;;;;13.05;9.88;;;;;;;;;;5050517;28;20145;-62
2023/06/21 04:58:03;;;;;;;11.98;9.70;;;;;;;;;;5033984;28;20102;-69
2023/06/21 05:00:28;;;;;;;11.32;9.18;;;;;;;;;;5038670;28;20472;-62
2023/06/21 05:02:53;;;;;;;12.80;9.93;;;;;;;;;;5053555;28;20143;-60
2023/06/21 05:05:19;;;;;;;13.40;9.97;;;;;;;;;;5051268;28;20108;-62
2023/06/21 05:07:44;;;;;;;16.60;11.45;;;;;;;;;;5053062;28;20867;-61
2023/06/21 05:10:09;;;;;;;18.30;13.50;;;;;;;;;;5051047;28;21187;-60
2023/06/21 05:12:35;;;;;;;14.63;11.65;;;;;;;;;;5038435;28;20321;-62
2023/06/21 05:15:00;;;;;;;16.00;11.40;;;;;;;;;;5029967;28;20358;-62
2023/06/21 05:17:25;;;;;;;15.18;11.10;;;;;;;;;;5051553;28;20104;-64
2023/06/21 05:19:51;;;;;;;15.57;10.70;;;;;;;;;;5049188;28;20052;-62
2023/06/21 05:22:16;;;;;;;16.00;11.07;;;;;;;;;;5051449;28;20032;-61
2023/06/21 05:24:41;;;;;;;12.13;10.45;;;;;;;;;;5051826;28;20027;-60
2023/06/21 05:27:06;;;;;;;16.70;10.85;;;;;;;;;;5050118;28;20043;-63
2023/06/21 05:29:34;;;;;;;15.57;10.50;;;;;;;;;;5051367;28;20494;-64
2023/06/21 05:31:59;;;;;;;14.63;9.45;;;;;;;;;;5030800;28;20111;-64
2023/06/21 05:34:26;;;;;;;14.87;10.67;;;;;;;;;;5051492;28;20130;-67
2023/06/21 05:36:52;;;;;;;14.98;9.80;;;;;;;;;;5038882;28;20099;-66
2023/06/21 05:39:17;;;;;;;13.68;10.10;;;;;;;;;;5050507;28;20024;-67
2023/06/21 05:41:42;;;;;;;13.90;9.83;;;;;;;;;;5033418;28;20017;-64
2023/06/21 05:44:07;;;;;;;20.87;10.70;;;;;;;;;;5051522;28;20329;-65
2023/06/21 05:46:33;;;;;;;12.67;9.87;;;;;;;;;;5051418;28;20048;-68
2023/06/21 05:48:58;;;;;;;13.07;9.77;;;;;;;;;;5051301;28;20040;-64
2023/06/21 05:51:23;;;;;;;10.93;9.00;;;;;;;;;;5048851;28;20085;-66
2023/06/21 05:53:48;;;;;;;14.47;8.77;;;;;;;;;;5051846;28;20071;-66
2023/06/21 05:56:14;;;;;;;11.37;9.30;;;;;;;;;;5049426;28;20652;-65
2023/06/21 05:58:39;;;;;;;13.83;10.13;;;;;;;;;;5052010;28;20565;-65
2023/06/21 06:01:04;;;;;;;11.23;8.87;;;;;;;;;;5050063;28;20283;-64
2023/06/21 06:03:29;;;;;;;13.67;9.90;;;;;;;;;;5031623;28;20028;-63
2023/06/21 06:05:55;;;;;;;13.63;8.77;;;;;;;;;;5036110;28;20286;-63
2023/06/21 06:08:21;;;;;;;16.52;10.65;;;;;;;;;;5050079;28;20355;-63
2023/06/21 06:10:47;;;;;;;15.95;11.40;;;;;;;;;;5049371;28;20330;-65
2023/06/21 06:13:12;;;;;;;16.65;11.52;;;;;;;;;;5049845;28;20636;-63
2023/06/21 06:15:37;;;;;;;20.03;12.13;;;;;;;;;;5050172;28;20040;-63
2023/06/21 06:18:02;;;;;;;17.77;11.43;;;;;;;;;;5051212;28;20401;-62
2023/06/21 06:20:28;;;;;;;16.33;10.45;;;;;;;;;;5050235;28;20347;-64
2023/06/21 06:22:53;;;;;;;17.08;10.77;;;;;;;;;;5049349;28;20074;-63
2023/06/21 06:25:18;;;;;;;10.93;8.93;;;;;;;;;;5048985;28;20025;-63
2023/06/21 06:27:44;;;;;;;15.05;11.30;;;;;;;;;;5049812;28;20016;-62
2023/06/21 06:30:10;;;;;;;17.15;11.40;;;;;;;;;;5048635;28;20138;-64
2023/06/21 06:32:36;;;;;;;14.70;10.60;;;;;;;;;;5038596;28;20035;-62
2023/06/21 06:35:01;;;;;;;15.27;10.47;;;;;;;;;;5051255;28;20033;-61
2023/06/21 06:37:26;;;;;;;15.35;11.40;;;;;;;;;;5052739;28;20819;-62
2023/06/21 06:39:53;;;;;;;13.85;10.25;;;;;;;;;;5038090;28;20121;-61
2023/06/21 06:42:18;;;;;;;14.57;10.23;;;;;;;;;;5046587;28;20057;-62
2023/06/21 06:44:44;;;;;;;14.60;11.02;;;;;;;;;;5050667;28;20527;-62
2023/06/21 06:47:09;;;;;;;14.10;9.38;;;;;;;;;;5049631;28;20016;-63
2023/06/21 06:49:34;;;;;;;13.32;9.88;;;;;;;;;;5056064;28;20512;-70
2023/06/21 06:52:00;;;;;;;12.13;8.63;;;;;;;;;;5058221;28;20039;-67
2023/06/21 06:54:25;;;;;;;14.23;9.75;;;;;;;;;;5027102;28;20337;-64
2023/06/21 06:56:51;;;;;;;13.77;9.00;;;;;;;;;;5044004;28;20048;-69
2023/06/21 06:59:16;;;;;;;13.70;9.05;;;;;;;;;;5055761;28;20048;-68
2023/06/21 07:01:41;;;;;;;11.50;8.82;;;;;;;;;;5042619;28;20081;-69
2023/06/21 07:04:06;;;;;;;12.00;9.13;;;;;;;;;;5055288;28;20268;-68
2023/06/21 07:06:32;;;;;;;12.68;8.48;;;;;;;;;;5025923;28;20322;-64
2023/06/21 07:08:57;;;;;;;12.73;9.70;;;;;;;;;;5035430;28;20037;-70
2023/06/21 07:11:22;;;;;;;11.20;9.63;;;;;;;;;;5038896;28;20282;-67
2023/06/21 07:13:47;;;;;;;13.40;9.10;;;;;;;;;;5055615;28;20285;-67
2023/06/21 07:16:13;;;;;;;13.20;8.93;;;;;;;;;;5055879;28;20490;-65
2023/06/21 07:18:38;;;;;;;10.75;8.15;;;;;;;;;;5026359;28;20485;-71
2023/06/21 07:21:04;;;;;;;17.03;10.23;;;;;;;;;;5056417;28;20407;-73
2023/06/21 07:23:29;;;;;;;10.30;8.70;;;;;;;;;;5036902;28;20279;-69
2023/06/21 07:25:55;;;;;;;12.93;8.07;;;;;;;;;;5043946;28;20309;-68
2023/06/21 07:28:20;;;;;;;14.18;9.25;;;;;;;;;;5037423;28;20365;-67
2023/06/21 07:30:45;;;;;;;10.53;8.40;;;;;;;;;;5056139;28;20809;-68
2023/06/21 07:33:10;;;;;;;10.50;8.85;;;;;;;;;;5038665;28;20582;-69
2023/06/21 07:35:36;;;;;;;14.83;9.53;;;;;;;;;;5035992;28;20056;-71
2023/06/21 07:38:03;;;;;;;12.60;8.55;;;;;;;;;;5052491;28;20291;-69
2023/06/21 07:40:28;;;;;;;12.63;8.90;;;;;;;;;;5039248;28;20044;-66
2023/06/21 07:42:54;;;;;;;12.70;8.70;;;;;;;;;;5024335;28;20041;-69
2023/06/21 07:45:19;;;;;;;11.27;8.23;;;;;;;;;;5026815;28;20110;-75
2023/06/21 07:47:44;;;;;;;12.88;9.45;;;;;;;;;;5054933;28;20082;-67
2023/06/21 07:50:10;;;;;;;15.27;8.93;;;;;;;;;;5057696;28;20036;-66
2023/06/21 07:52:35;;;;;;;13.48;9.63;;;;;;;;;;5044866;28;20384;-68
2023/06/21 07:55:01;;;;;;;11.60;9.43;;;;;;;;;;5044469;28;20040;-68
2023/06/21 07:57:27;;;;;;;11.90;9.05;;;;;;;;;;5041196;28;20322;-71
2023/06/21 07:59:52;;;;;;;12.40;8.97;;;;;;;;;;5058566;28;20076;-76
2023/06/21 08:02:18;;;;;;;12.00;8.90;;;;;;;;;;5049058;28;20275;-76
2023/06/21 08:04:44;;;;;;;10.45;8.18;;;;;;;;;;5017453;28;20059;-70
2023/06/21 08:07:09;;;;;;;11.57;8.80;;;;;;;;;;5059907;28;20082;-76
2023/06/21 08:09:34;;;;;;;12.20;9.47;;;;;;;;;;5036310;28;20041;-75
2023/06/21 08:12:00;;;;;;;10.97;9.33;;;;;;;;;;5055429;28;20313;-71
2023/06/21 08:14:25;;;;;;;9.50;7.78;;;;;;;;;;5024103;28;20047;-74
2023/06/21 08:16:50;;;;;;;10.87;7.57;;;;;;;;;;5045558;28;20041;-69
2023/06/21 08:19:15;;;;;;;10.43;7.93;;;;;;;;;;5060193;28;20289;-72
2023/06/21 08:21:41;;;;;;;9.63;7.90;;;;;;;;;;5042926;28;20037;-69
2023/06/21 08:24:06;;;;;;;11.57;8.48;;;;;;;;;;5070632;28;20044;-69
2023/06/21 08:26:31;;;;;;;12.90;8.67;;;;;;;;;;5062839;28;20087;-67
2023/06/21 08:28:57;;;;;;;11.20;8.67;;;;;;;;;;5053038;28;20291;-68
2023/06/21 08:31:22;;;;;;;11.80;8.70;;;;;;;;;;5058137;28;20434;-67
2023/06/21 08:33:47;;;;;;;9.97;8.20;;;;;;;;;;5059758;28;20366;-66
2023/06/21 08:36:13;;;;;;;9.23;8.05;;;;;;;;;;5059506;28;20303;-71
2023/06/21 08:38:38;;;;;;;10.77;8.30;;;;;;;;;;5050724;28;20513;-77
2023/06/21 08:41:04;;;;;;;8.85;7.63;;;;;;;;;;5046135;28;20542;-74
2023/06/21 08:43:29;;;;;;;12.40;8.57;;;;;;;;;;5038236;28;20028;-73
2023/06/21 08:45:54;;;;;;;11.17;8.33;;;;;;;;;;5072658;28;20039;-75
2023/06/21 08:48:19;;;;;;;11.63;8.15;;;;;;;;;;5041999;28;20132;-68
2023/06/21 08:50:45;;;;;;;10.07;8.32;;;;;;;;;;5046314;28;20090;-68
2023/06/21 08:53:10;;;;;;;14.47;8.67;;;;;;;;;;5036200;28;20124;-68
2023/06/21 08:55:35;;;;;;;11.33;8.90;;;;;;;;;;5032121;28;20428;-70
2023/06/21 08:58:14;;;;;;;10.30;7.93;;;;;;;;;;5066110;28;20729;-67
2023/06/21 09:00:42;;;;;;;10.40;8.32;;;;;;;;;;5050881;28;20286;-67
2023/06/21 09:03:09;;;;;;;9.65;7.85;;;;;;;;;;5022173;28;20036;-68
2023/06/21 09:05:40;;;;;;;11.65;8.10;;;;;;;;;;5050223;28;20044;-69
2023/06/21 09:08:05;;;;;;;10.48;8.25;;;;;;;;;;5034814;28;20036;-71
2023/06/21 09:10:31;;;;;;;12.43;8.50;;;;;;;;;;5034041;28;20425;-66
2023/06/21 09:12:57;;;;;;;10.43;8.37;;;;;;;;;;5038838;28;20398;-67
2023/06/21 09:15:23;;;;;;;11.90;7.57;;;;;;;;;;5051858;28;20040;-69
2023/06/21 09:17:48;;;;;;;9.25;7.80;;;;;;;;;;5035375;28;20105;-70
2023/06/21 09:20:14;;;;;;;10.50;8.30;;;;;;;;;;5053755;28;20044;-69
2023/06/21 09:22:39;;;;;;;10.65;8.50;;;;;;;;;;5053416;28;20458;-69
2023/06/21 09:25:05;;;;;;;8.85;7.40;;;;;;;;;;5050892;28;20559;-68
2023/06/21 09:27:30;;;;;;;10.60;8.25;;;;;;;;;;5035060;28;20036;-68
2023/06/21 09:29:55;;;;;;;10.57;7.65;;;;;;;;;;5042531;28;20044;-64
2023/06/21 09:32:20;;;;;;;9.30;7.70;;;;;;;;;;5039396;28;20044;-65
2023/06/21 09:34:46;;;;;;;10.53;7.63;;;;;;;;;;5055911;28;20071;-68
2023/06/21 09:37:29;;;;;;;8.37;7.13;;;;;;;;;;5051939;28;20083;-69
2023/06/21 09:39:54;;;;;;;8.98;7.38;;;;;;;;;;5051526;28;20029;-70
2023/06/21 09:42:21;;;;;;;9.57;7.50;;;;;;;;;;5051495;28;20584;-68
2023/06/21 09:44:46;;;;;;;8.80;7.78;;;;;;;;;;5056710;28;20407;-69
2023/06/21 09:47:13;;;;;;;9.67;7.67;;;;;;;;;;5062819;28;20036;-64
2023/06/21 09:49:44;;;;;;;10.18;7.65;;;;;;;;;;5047631;28;20815;-70
2023/06/21 09:52:09;;;;;;;9.25;7.93;;;;;;;;;;5063501;28;20039;-68
2023/06/21 09:54:41;;;;;;;9.00;7.50;;;;;;;;;;5040902;28;20033;-69
2023/06/21 09:57:06;;;;;;;9.82;7.43;;;;;;;;;;5041342;28;20044;-68
2023/06/21 09:59:31;;;;;;;10.13;7.70;;;;;;;;;;5066923;28;20035;-70
2023/06/21 10:01:57;;;;;;;8.80;7.00;;;;;;;;;;5033394;28;20808;-65
2023/06/21 10:04:23;;;;;;;10.37;7.47;;;;;;;;;;5037962;28;20040;-71
2023/06/21 10:06:49;;;;;;;8.63;7.63;;;;;;;;;;5046469;28;20462;-70
2023/06/21 10:09:14;;;;;;;8.88;7.35;;;;;;;;;;5064567;28;20055;-70
2023/06/21 10:11:43;;;;;;;7.93;6.63;;;;;;;;;;5044836;28;20491;-68
2023/06/21 10:14:16;;;;;;;10.43;7.37;;;;;;;;;;5060272;28;20659;-68
2023/06/21 10:16:41;;;;;;;8.90;7.68;;;;;;;;;;5046654;28;20701;-66
2023/06/21 10:19:06;;;;;;;7.97;7.07;;;;;;;;;;5050238;28;20109;-67
2023/06/21 10:21:32;;;;;;;10.40;7.60;;;;;;;;;;5042961;28;20459;-67
2023/06/21 10:23:57;;;;;;;8.50;7.03;;;;;;;;;;5041197;28;20491;-66
2023/06/21 10:26:22;;;;;;;7.67;6.87;;;;;;;;;;5069379;28;20035;-70
2023/06/21 10:28:49;;;;;;;8.60;7.40;;;;;;;;;;5051277;28;20050;-69
2023/06/21 10:31:14;;;;;;;7.95;6.70;;;;;;;;;;5049118;28;20039;-68
2023/06/21 10:33:40;;;;;;;8.33;6.87;;;;;;;;;;5061578;28;20040;-67
2023/06/21 10:36:06;;;;;;;8.83;6.53;;;;;;;;;;5070744;28;20109;-67
2023/06/21 10:38:41;;;;;;;8.63;6.68;;;;;;;;;;5070625;28;20445;-69
2023/06/21 10:41:06;;;;;;;8.57;6.65;;;;;;;;;;5059461;28;20036;-70
2023/06/21 10:43:32;;;;;;;7.40;6.43;;;;;;;;;;5068647;28;20111;-68
2023/06/21 10:45:58;;;;;;;7.07;6.32;;;;;;;;;;5066876;28;20115;-68
2023/06/21 10:48:23;;;;;;;7.32;6.43;;;;;;;;;;5051990;28;20041;-70
2023/06/21 10:50:48;;;;;;;7.90;6.45;;;;;;;;;;5054029;28;20028;-70
2023/06/21 10:53:17;;;;;;;7.23;6.40;;;;;;;;;;5065234;28;20038;-70
2023/06/21 10:55:42;;;;;;;7.43;6.43;;;;;;;;;;5049042;28;20340;-68
2023/06/21 10:58:07;;;;;;;7.40;6.28;;;;;;;;;;5065037;28;20040;-66
2023/06/21 11:00:33;;;;;;;7.40;6.60;;;;;;;;;;5054017;28;20050;-66
2023/06/21 11:02:58;;;;;;;7.57;6.60;;;;;;;;;;5038733;28;20036;-68
2023/06/21 11:05:23;;;;;;;8.43;6.60;;;;;;;;;;5067662;28;20287;-69
2023/06/21 11:07:59;;;;;;;7.72;6.93;;;;;;;;;;5040692;28;20043;-67
2023/06/21 11:10:50;;;;;;;8.40;6.70;;;;;;;;;;5029788;28;20384;-70
2023/06/21 11:13:16;;;;;;;8.30;6.63;;;;;;;;;;5063103;28;20051;-64
2023/06/21 11:15:42;;;;;;;8.15;6.50;;;;;;;;;;5059544;28;20094;-67
2023/06/21 11:18:08;;;;;;;8.25;7.20;;;;;;;;;;5058290;28;20040;-70
2023/06/21 11:20:43;;;;;;;7.05;6.30;;;;;;;;;;5065873;28;20032;-69
2023/06/21 11:23:08;;;;;;;8.00;6.38;;;;;;;;;;5047884;28;20053;-67
2023/06/21 11:25:36;;;;;;;10.47;8.37;;;;;;;;;;5063193;28;20499;-69
2023/06/21 11:28:20;;;;;;;8.32;6.50;;;;;;;;;;5067436;28;20364;-68
2023/06/21 11:31:03;;;;;;;7.05;6.20;;;;;;;;;;5073926;28;20044;-64
2023/06/21 11:33:29;;;;;;;7.95;6.28;;;;;;;;;;5072502;28;20029;-66
2023/06/21 11:36:04;;;;;;;8.75;6.45;;;;;;;;;;5028204;28;20424;-68
2023/06/21 11:38:33;;;;;;;7.95;6.43;;;;;;;;;;5046898;28;20037;-69
2023/06/21 11:40:58;;;;;;;7.28;6.07;;;;;;;;;;5061600;28;20435;-68
2023/06/21 11:43:23;;;;;;;8.43;6.80;;;;;;;;;;5034037;28;20032;-64
2023/06/21 11:46:00;;;;;;;7.20;6.43;;;;;;;;;;5052898;28;20369;-70
2023/06/21 11:48:25;;;;;;;7.53;6.55;;;;;;;;;;5041190;28;20047;-66
2023/06/21 11:50:51;;;;;;;7.22;6.22;;;;;;;;;;5060934;28;20037;-69
2023/06/21 11:53:28;;;;;;;7.95;7.10;;;;;;;;;;5040213;28;20502;-69
2023/06/21 11:56:00;;;;;;;9.32;6.47;;;;;;;;;;5078897;28;20041;-69
2023/06/21 11:58:25;;;;;;;8.75;6.60;;;;;;;;;;5064399;28;20296;-70
2023/06/21 12:00:50;;;;;;;7.97;6.47;;;;;;;;;;5062682;28;20033;-68
2023/06/21 12:03:16;;;;;;;10.27;7.35;;;;;;;;;;5049997;28;20032;-69
2023/06/21 12:05:48;;;;;;;8.23;7.43;;;;;;;;;;5045851;28;20468;-63
2023/06/21 12:08:13;;;;;;;8.68;6.65;;;;;;;;;;5056328;28;20461;-74
2023/06/21 12:10:39;;;;;;;10.65;7.70;;;;;;;;;;5050199;28;20029;-74
2023/06/21 12:13:05;;;;;;;6.83;6.13;;;;;;;;;;5048715;28;20525;-71
2023/06/21 12:15:30;;;;;;;8.30;7.07;;;;;;;;;;5066655;28;20457;-73
2023/06/21 12:17:55;;;;;;;9.63;7.57;;;;;;;;;;5049355;28;20037;-66
2023/06/21 12:20:20;;;;;;;7.23;6.53;;;;;;;;;;5053484;28;20151;-68
2023/06/21 12:22:49;;;;;;;9.05;6.78;;;;;;;;;;5036842;28;20056;-67
2023/06/21 12:25:14;;;;;;;7.97;6.40;;;;;;;;;;5043643;28;20127;-69
2023/06/21 12:27:52;;;;;;;8.63;7.43;;;;;;;;;;5050747;28;20106;-74
2023/06/21 12:30:17;;;;;;;9.52;7.18;;;;;;;;;;5054135;28;20590;-76
2023/06/21 12:32:43;;;;;;;8.45;6.68;;;;;;;;;;5045760;28;20451;-73
2023/06/21 12:35:08;;;;;;;7.28;6.55;;;;;;;;;;5030277;28;20028;-74
2023/06/21 12:37:33;;;;;;;7.63;6.60;;;;;;;;;;5065685;28;20056;-75
2023/06/21 12:39:59;;;;;;;7.60;6.80;;;;;;;;;;5059640;28;20781;-79
2023/06/21 12:42:27;;;;;;;7.72;6.93;;;;;;;;;;5017896;28;20374;-77
2023/06/21 12:44:56;;;;;;;8.75;6.95;;;;;;;;;;5061454;28;20430;-73
2023/06/21 12:47:21;;;;;;;8.15;6.70;;;;;;;;;;5040286;28;20040;-69
2023/06/21 12:49:47;;;;;;;7.57;6.70;;;;;;;;;;5064001;28;20028;-72
2023/06/21 12:52:12;;;;;;;8.25;6.57;;;;;;;;;;5058147;28;20029;-68
2023/06/21 12:54:39;;;;;;;8.50;6.80;;;;;;;;;;5063426;28;20032;-67
2023/06/21 12:57:04;;;;;;;9.30;7.03;;;;;;;;;;5042274;28;20639;-69
2023/06/21 12:59:30;;;;;;;7.25;5.93;;;;;;;;;;5047213;28;20918;-73
2023/06/21 13:01:57;;;;;;;7.00;6.00;;;;;;;;;;5050202;28;20450;-69
2023/06/21 13:04:22;;;;;;;7.68;6.22;;;;;;;;;;5068352;28;20514;-78
2023/06/21 13:06:49;;;;;;;8.18;6.90;;;;;;;;;;5025702;28;20041;-72
2023/06/21 13:09:15;;;;;;;7.20;6.50;;;;;;;;;;5061163;28;20040;-69
2023/06/21 13:11:40;;;;;;;7.97;7.17;;;;;;;;;;5055806;28;20032;-72
2023/06/21 13:14:05;;;;;;;6.93;6.23;;;;;;;;;;5044322;28;20673;-68
2023/06/21 13:16:31;;;;;;;8.20;7.13;;;;;;;;;;5023234;28;20288;-69
2023/06/21 13:18:56;;;;;;;7.85;6.80;;;;;;;;;;5035228;28;20459;-72
2023/06/21 13:21:21;;;;;;;7.80;6.60;;;;;;;;;;5032721;28;20356;-73
2023/06/21 13:23:48;;;;;;;8.20;7.18;;;;;;;;;;5045515;28;20037;-70
2023/06/21 13:26:14;;;;;;;9.85;7.22;;;;;;;;;;5046392;28;20025;-69
2023/06/21 13:28:39;;;;;;;7.88;6.88;;;;;;;;;;5046957;28;20059;-68
2023/06/21 13:31:04;;;;;;;10.53;8.53;;;;;;;;;;5056654;28;20080;-74
2023/06/21 13:33:29;;;;;;;8.93;6.68;;;;;;;;;;5029601;28;20040;-68
2023/06/21 13:35:55;;;;;;;8.40;6.87;;;;;;;;;;5061762;28;20056;-64
2023/06/21 13:38:24;;;;;;;7.40;6.35;;;;;;;;;;5055392;28;20037;-63
2023/06/21 13:40:50;;;;;;;8.05;7.20;;;;;;;;;;5057631;28;20033;-65
2023/06/21 13:43:15;;;;;;;8.90;7.50;;;;;;;;;;5054364;28;20036;-64
2023/06/21 13:45:41;;;;;;;8.40;7.13;;;;;;;;;;5037953;28;20120;-66
2023/06/21 13:48:08;;;;;;;7.45;6.75;;;;;;;;;;5063619;28;20289;-65
2023/06/21 13:50:33;;;;;;;7.93;6.85;;;;;;;;;;5057216;28;20028;-65
2023/06/21 13:52:58;;;;;;;7.50;6.30;;;;;;;;;;5066037;28;20044;-65
2023/06/21 13:55:23;;;;;;;9.10;7.23;;;;;;;;;;5066383;28;20036;-63
2023/06/21 13:57:52;;;;;;;7.72;6.93;;;;;;;;;;5064091;28;20053;-65
2023/06/21 14:00:18;;;;;;;7.72;6.90;;;;;;;;;;5057834;28;20043;-62
2023/06/21 14:02:46;;;;;;;8.27;6.90;;;;;;;;;;5030566;28;20654;-70
2023/06/21 14:05:12;;;;;;;8.75;7.50;;;;;;;;;;5037119;28;20036;-67
2023/06/21 14:07:37;;;;;;;7.93;7.13;;;;;;;;;;5053591;28;20040;-64
2023/06/21 14:10:03;;;;;;;8.82;6.38;;;;;;;;;;5044800;28;20394;-67
2023/06/21 14:12:28;;;;;;;8.63;7.63;;;;;;;;;;5051300;28;20033;-68
2023/06/21 14:14:53;;;;;;;8.02;7.22;;;;;;;;;;5051921;28;20029;-70
2023/06/21 14:17:18;;;;;;;7.68;6.88;;;;;;;;;;5073638;28;20055;-65
2023/06/21 14:19:44;;;;;;;8.57;7.40;;;;;;;;;;5060343;28;20032;-62
2023/06/21 14:22:10;;;;;;;8.13;7.30;;;;;;;;;;5052827;28;20039;-64
2023/06/21 14:24:36;;;;;;;8.20;7.00;;;;;;;;;;5063230;28;20457;-63
2023/06/21 14:27:01;;;;;;;7.97;7.18;;;;;;;;;;5069494;28;20036;-66
2023/06/21 14:29:26;;;;;;;9.30;6.97;;;;;;;;;;5062153;28;20500;-66